sensor_id;sensor_type;location;lat;lon;timestamp;temperature;humidity
3752;DHT22;50827;47.014;7.652;2024-01-07T00:00:48;5.50;99.90
3752;DHT22;50827;47.014;7.652;2024-01-07T00:03:15;5.50;99.90
3752;DHT22;50827;47.014;7.652;2024-01-07T00:05:43;5.60;99.90
3752;DHT22;50827;47.014;7.652;2024-01-07T00:08:09;5.60;99.90
3752;DHT22;50827;47.014;7.652;2024-01-07T00:10:36;5.60;99.90
3752;DHT22;50827;47.014;7.652;2024-01-07T00:13:03;5.60;99.90
3752;DHT22;50827;47.014;7.652;2024-01-07T00:15:29;5.60;99.90
3752;DHT22;50827;47.014;7.652;2024-01-07T00:17:56;5.50;99.90
3752;DHT22;50827;47.014;7.652;2024-01-07T00:20:23;5.50;99.90
3752;DHT22;50827;47.014;7.652;2024-01-07T00:22:50;5.50;99.90
3752;DHT22;50827;47.014;7.652;2024-01-07T00:25:17;5.50;99.90
3752;DHT22;50827;47.014;7.652;2024-01-07T00:27:44;5.50;99.90
3752;DHT22;50827;47.014;7.652;2024-01-07T00:30:11;5.50;99.90
3752;DHT22;50827;47.014;7.652;2024-01-07T00:32:38;5.50;99.90
3752;DHT22;50827;47.014;7.652;2024-01-07T00:35:05;5.50;99.90
3752;DHT22;50827;47.014;7.652;2024-01-07T00:37:32;5.50;99.90
3752;DHT22;50827;47.014;7.652;2024-01-07T00:40:01;5.50;99.90
3752;DHT22;50827;47.014;7.652;2024-01-07T00:42:28;5.60;99.90
3752;DHT22;50827;47.014;7.652;2024-01-07T00:44:55;5.50;99.90
3752;DHT22;50827;47.014;7.652;2024-01-07T00:47:22;5.60;99.90
3752;DHT22;50827;47.014;7.652;2024-01-07T00:49:48;5.60;99.90
3752;DHT22;50827;47.014;7.652;2024-01-07T00:52:15;5.60;99.90
3752;DHT22;50827;47.014;7.652;2024-01-07T00:54:42;5.60;99.90
3752;DHT22;50827;47.014;7.652;2024-01-07T00:57:10;5.60;99.90
3752;DHT22;50827;47.014;7.652;2024-01-07T00:59:38;5.60;99.90
3752;DHT22;50827;47.014;7.652;2024-01-07T01:02:05;5.60;99.90
3752;DHT22;50827;47.014;7.652;2024-01-07T01:04:32;5.60;99.90
3752;DHT22;50827;47.014;7.652;2024-01-07T01:06:59;5.60;99.90
3752;DHT22;50827;47.014;7.652;2024-01-07T01:09:28;5.50;99.90
3752;DHT22;50827;47.014;7.652;2024-01-07T01:11:55;5.50;99.90
3752;DHT22;50827;47.014;7.652;2024-01-07T01:14:22;5.50;99.90
3752;DHT22;50827;47.014;7.652;2024-01-07T01:16:48;5.50;99.90
3752;DHT22;50827;47.014;7.652;2024-01-07T01:19:15;5.50;99.90
3752;DHT22;50827;47.014;7.652;2024-01-07T01:21:42;5.60;99.90
3752;DHT22;50827;47.014;7.652;2024-01-07T01:24:09;5.50;99.90
3752;DHT22;50827;47.014;7.652;2024-01-07T01:26:36;5.50;99.90
3752;DHT22;50827;47.014;7.652;2024-01-07T01:29:02;5.50;99.90
3752;DHT22;50827;47.014;7.652;2024-01-07T01:31:29;5.50;99.90
3752;DHT22;50827;47.014;7.652;2024-01-07T01:33:56;5.50;99.90
3752;DHT22;50827;47.014;7.652;2024-01-07T01:36:23;5.50;99.90
3752;DHT22;50827;47.014;7.652;2024-01-07T01:38:50;5.50;99.90
3752;DHT22;50827;47.014;7.652;2024-01-07T01:41:17;5.50;99.90
3752;DHT22;50827;47.014;7.652;2024-01-07T01:43:44;5.50;99.90
3752;DHT22;50827;47.014;7.652;2024-01-07T01:46:11;5.50;99.90
3752;DHT22;50827;47.014;7.652;2024-01-07T01:48:39;5.50;99.90
3752;DHT22;50827;47.014;7.652;2024-01-07T01:51:07;5.50;99.90
3752;DHT22;50827;47.014;7.652;2024-01-07T01:53:34;5.50;99.90
3752;DHT22;50827;47.014;7.652;2024-01-07T01:56:01;5.50;99.90
3752;DHT22;50827;47.014;7.652;2024-01-07T01:58:32;5.50;99.90
3752;DHT22;50827;47.014;7.652;2024-01-07T02:00:59;5.50;99.90
3752;DHT22;50827;47.014;7.652;2024-01-07T02:03:26;5.50;99.90
3752;DHT22;50827;47.014;7.652;2024-01-07T02:05:53;5.50;99.90
3752;DHT22;50827;47.014;7.652;2024-01-07T02:08:20;5.50;99.90
3752;DHT22;50827;47.014;7.652;2024-01-07T02:10:47;5.50;99.90
3752;DHT22;50827;47.014;7.652;2024-01-07T02:13:14;5.50;99.90
3752;DHT22;50827;47.014;7.652;2024-01-07T02:15:40;5.50;99.90
3752;DHT22;50827;47.014;7.652;2024-01-07T02:18:07;5.50;99.90
3752;DHT22;50827;47.014;7.652;2024-01-07T02:20:34;5.50;99.90
3752;DHT22;50827;47.014;7.652;2024-01-07T02:23:03;5.50;99.90
3752;DHT22;50827;47.014;7.652;2024-01-07T02:25:35;5.50;99.90
3752;DHT22;50827;47.014;7.652;2024-01-07T02:28:02;5.50;99.90
3752;DHT22;50827;47.014;7.652;2024-01-07T02:30:29;5.50;99.90
3752;DHT22;50827;47.014;7.652;2024-01-07T02:33:01;5.50;99.90
3752;DHT22;50827;47.014;7.652;2024-01-07T02:35:28;5.50;99.90
3752;DHT22;50827;47.014;7.652;2024-01-07T02:37:54;5.50;99.90
3752;DHT22;50827;47.014;7.652;2024-01-07T02:40:21;5.40;99.90
3752;DHT22;50827;47.014;7.652;2024-01-07T02:42:48;5.40;99.90
3752;DHT22;50827;47.014;7.652;2024-01-07T02:45:15;5.40;99.90
3752;DHT22;50827;47.014;7.652;2024-01-07T02:47:41;5.50;99.90
3752;DHT22;50827;47.014;7.652;2024-01-07T02:50:08;5.50;99.90
3752;DHT22;50827;47.014;7.652;2024-01-07T02:52:35;5.50;99.90
3752;DHT22;50827;47.014;7.652;2024-01-07T02:55:02;5.50;99.90
3752;DHT22;50827;47.014;7.652;2024-01-07T02:57:29;5.50;99.90
3752;DHT22;50827;47.014;7.652;2024-01-07T02:59:55;5.40;99.90
3752;DHT22;50827;47.014;7.652;2024-01-07T03:02:22;5.40;99.90
3752;DHT22;50827;47.014;7.652;2024-01-07T03:04:49;5.40;99.90
3752;DHT22;50827;47.014;7.652;2024-01-07T03:07:16;5.40;99.90
3752;DHT22;50827;47.014;7.652;2024-01-07T03:09:43;5.40;99.90
3752;DHT22;50827;47.014;7.652;2024-01-07T03:12:15;5.40;99.90
3752;DHT22;50827;47.014;7.652;2024-01-07T03:14:42;5.40;99.90
3752;DHT22;50827;47.014;7.652;2024-01-07T03:17:12;5.40;99.90
3752;DHT22;50827;47.014;7.652;2024-01-07T03:19:39;5.50;99.90
3752;DHT22;50827;47.014;7.652;2024-01-07T03:22:07;5.50;99.90
3752;DHT22;50827;47.014;7.652;2024-01-07T03:24:33;5.40;99.90
3752;DHT22;50827;47.014;7.652;2024-01-07T03:27:00;5.40;99.90
3752;DHT22;50827;47.014;7.652;2024-01-07T03:29:27;5.40;99.90
3752;DHT22;50827;47.014;7.652;2024-01-07T03:31:53;5.40;99.90
3752;DHT22;50827;47.014;7.652;2024-01-07T03:34:20;5.40;99.90
3752;DHT22;50827;47.014;7.652;2024-01-07T03:36:48;5.40;99.90
3752;DHT22;50827;47.014;7.652;2024-01-07T03:39:15;5.30;99.90
3752;DHT22;50827;47.014;7.652;2024-01-07T03:41:42;5.30;99.90
3752;DHT22;50827;47.014;7.652;2024-01-07T03:44:08;5.30;99.90
3752;DHT22;50827;47.014;7.652;2024-01-07T03:46:35;5.20;99.90
3752;DHT22;50827;47.014;7.652;2024-01-07T03:49:02;5.20;99.90
3752;DHT22;50827;47.014;7.652;2024-01-07T03:51:28;5.20;99.90
3752;DHT22;50827;47.014;7.652;2024-01-07T03:53:55;5.20;99.90
3752;DHT22;50827;47.014;7.652;2024-01-07T03:56:22;5.20;99.90
3752;DHT22;50827;47.014;7.652;2024-01-07T03:58:49;5.20;99.90
3752;DHT22;50827;47.014;7.652;2024-01-07T04:01:16;5.20;99.90
3752;DHT22;50827;47.014;7.652;2024-01-07T04:03:44;5.20;99.90
3752;DHT22;50827;47.014;7.652;2024-01-07T04:06:11;5.20;99.90
3752;DHT22;50827;47.014;7.652;2024-01-07T04:08:38;5.20;99.90
3752;DHT22;50827;47.014;7.652;2024-01-07T04:11:05;5.20;99.90
3752;DHT22;50827;47.014;7.652;2024-01-07T04:13:31;5.20;99.90
3752;DHT22;50827;47.014;7.652;2024-01-07T04:15:58;5.20;99.90
3752;DHT22;50827;47.014;7.652;2024-01-07T04:18:25;5.20;99.90
3752;DHT22;50827;47.014;7.652;2024-01-07T04:20:52;5.20;99.90
3752;DHT22;50827;47.014;7.652;2024-01-07T04:23:19;5.30;99.90
3752;DHT22;50827;47.014;7.652;2024-01-07T04:25:46;5.30;99.90
3752;DHT22;50827;47.014;7.652;2024-01-07T04:28:13;5.20;99.90
3752;DHT22;50827;47.014;7.652;2024-01-07T04:30:41;5.20;99.90
3752;DHT22;50827;47.014;7.652;2024-01-07T04:33:08;5.20;99.90
3752;DHT22;50827;47.014;7.652;2024-01-07T04:35:35;5.20;99.90
3752;DHT22;50827;47.014;7.652;2024-01-07T04:38:03;5.20;99.90
3752;DHT22;50827;47.014;7.652;2024-01-07T04:40:32;5.20;99.90
3752;DHT22;50827;47.014;7.652;2024-01-07T04:42:58;5.20;99.90
3752;DHT22;50827;47.014;7.652;2024-01-07T04:45:25;5.30;99.90
3752;DHT22;50827;47.014;7.652;2024-01-07T04:47:52;5.20;99.90
3752;DHT22;50827;47.014;7.652;2024-01-07T04:50:19;5.30;99.90
3752;DHT22;50827;47.014;7.652;2024-01-07T04:52:46;5.30;99.90
3752;DHT22;50827;47.014;7.652;2024-01-07T04:55:13;5.20;99.90
3752;DHT22;50827;47.014;7.652;2024-01-07T04:57:40;5.20;99.90
3752;DHT22;50827;47.014;7.652;2024-01-07T05:00:07;5.20;99.90
3752;DHT22;50827;47.014;7.652;2024-01-07T05:02:34;5.20;99.90
3752;DHT22;50827;47.014;7.652;2024-01-07T05:05:00;5.20;99.90
3752;DHT22;50827;47.014;7.652;2024-01-07T05:07:27;5.20;99.90
3752;DHT22;50827;47.014;7.652;2024-01-07T05:09:54;5.20;99.90
3752;DHT22;50827;47.014;7.652;2024-01-07T05:12:21;5.20;99.90
3752;DHT22;50827;47.014;7.652;2024-01-07T05:14:48;5.20;99.90
3752;DHT22;50827;47.014;7.652;2024-01-07T05:17:14;5.20;99.90
3752;DHT22;50827;47.014;7.652;2024-01-07T05:19:41;5.20;99.90
3752;DHT22;50827;47.014;7.652;2024-01-07T05:22:09;5.20;99.90
3752;DHT22;50827;47.014;7.652;2024-01-07T05:24:38;5.20;99.90
3752;DHT22;50827;47.014;7.652;2024-01-07T05:27:05;5.20;99.90
3752;DHT22;50827;47.014;7.652;2024-01-07T05:29:32;5.20;99.90
3752;DHT22;50827;47.014;7.652;2024-01-07T05:32:02;5.20;99.90
3752;DHT22;50827;47.014;7.652;2024-01-07T05:34:29;5.20;99.90
3752;DHT22;50827;47.014;7.652;2024-01-07T05:36:56;5.20;99.90
3752;DHT22;50827;47.014;7.652;2024-01-07T05:39:23;5.20;99.90
3752;DHT22;50827;47.014;7.652;2024-01-07T05:41:50;5.20;99.90
3752;DHT22;50827;47.014;7.652;2024-01-07T05:44:16;5.10;99.90
3752;DHT22;50827;47.014;7.652;2024-01-07T05:46:43;5.10;99.90
3752;DHT22;50827;47.014;7.652;2024-01-07T05:49:10;5.10;99.90
3752;DHT22;50827;47.014;7.652;2024-01-07T05:51:40;5.10;99.90
3752;DHT22;50827;47.014;7.652;2024-01-07T05:54:07;5.10;99.90
3752;DHT22;50827;47.014;7.652;2024-01-07T05:56:41;5.00;99.90
3752;DHT22;50827;47.014;7.652;2024-01-07T05:59:08;5.00;99.90
3752;DHT22;50827;47.014;7.652;2024-01-07T06:01:35;5.00;99.90
3752;DHT22;50827;47.014;7.652;2024-01-07T06:04:02;4.90;99.90
3752;DHT22;50827;47.014;7.652;2024-01-07T06:06:29;4.90;99.90
3752;DHT22;50827;47.014;7.652;2024-01-07T06:08:56;4.90;99.90
3752;DHT22;50827;47.014;7.652;2024-01-07T06:11:23;4.80;99.90
3752;DHT22;50827;47.014;7.652;2024-01-07T06:13:50;4.80;99.90
3752;DHT22;50827;47.014;7.652;2024-01-07T06:16:16;4.70;99.90
3752;DHT22;50827;47.014;7.652;2024-01-07T06:18:43;4.70;99.90
3752;DHT22;50827;47.014;7.652;2024-01-07T06:21:10;4.70;99.90
3752;DHT22;50827;47.014;7.652;2024-01-07T06:23:37;4.70;99.90
3752;DHT22;50827;47.014;7.652;2024-01-07T06:26:04;4.60;99.90
3752;DHT22;50827;47.014;7.652;2024-01-07T06:28:32;4.70;99.90
3752;DHT22;50827;47.014;7.652;2024-01-07T06:30:59;4.70;99.90
3752;DHT22;50827;47.014;7.652;2024-01-07T06:33:29;4.70;99.90
3752;DHT22;50827;47.014;7.652;2024-01-07T06:35:56;4.70;99.90
3752;DHT22;50827;47.014;7.652;2024-01-07T06:38:22;4.70;99.90
3752;DHT22;50827;47.014;7.652;2024-01-07T06:40:50;4.80;99.90
3752;DHT22;50827;47.014;7.652;2024-01-07T06:43:17;4.70;99.90
3752;DHT22;50827;47.014;7.652;2024-01-07T06:45:45;4.80;99.90
3752;DHT22;50827;47.014;7.652;2024-01-07T06:48:12;4.80;99.90
3752;DHT22;50827;47.014;7.652;2024-01-07T06:50:38;4.80;99.90
3752;DHT22;50827;47.014;7.652;2024-01-07T06:53:05;4.80;99.90
3752;DHT22;50827;47.014;7.652;2024-01-07T06:55:32;4.70;99.90
3752;DHT22;50827;47.014;7.652;2024-01-07T06:57:59;4.80;99.90
3752;DHT22;50827;47.014;7.652;2024-01-07T07:00:25;4.70;99.90
3752;DHT22;50827;47.014;7.652;2024-01-07T07:02:52;4.70;99.90
3752;DHT22;50827;47.014;7.652;2024-01-07T07:05:19;4.70;99.90
3752;DHT22;50827;47.014;7.652;2024-01-07T07:07:46;4.60;99.90
3752;DHT22;50827;47.014;7.652;2024-01-07T07:10:12;4.70;99.90
3752;DHT22;50827;47.014;7.652;2024-01-07T07:12:39;4.60;99.90
3752;DHT22;50827;47.014;7.652;2024-01-07T07:15:06;4.70;99.90
3752;DHT22;50827;47.014;7.652;2024-01-07T07:17:37;4.70;99.90
3752;DHT22;50827;47.014;7.652;2024-01-07T07:20:05;4.70;99.90
3752;DHT22;50827;47.014;7.652;2024-01-07T07:22:32;4.60;99.90
3752;DHT22;50827;47.014;7.652;2024-01-07T07:24:59;4.70;99.90
3752;DHT22;50827;47.014;7.652;2024-01-07T07:27:28;4.70;99.90
3752;DHT22;50827;47.014;7.652;2024-01-07T07:29:55;4.70;99.90
3752;DHT22;50827;47.014;7.652;2024-01-07T07:32:22;4.60;99.90
3752;DHT22;50827;47.014;7.652;2024-01-07T07:34:48;4.70;99.90
3752;DHT22;50827;47.014;7.652;2024-01-07T07:37:15;4.70;99.90
3752;DHT22;50827;47.014;7.652;2024-01-07T07:39:46;4.60;99.90
3752;DHT22;50827;47.014;7.652;2024-01-07T07:42:13;4.60;99.90
3752;DHT22;50827;47.014;7.652;2024-01-07T07:44:39;4.60;99.90
3752;DHT22;50827;47.014;7.652;2024-01-07T07:47:06;4.60;99.90
3752;DHT22;50827;47.014;7.652;2024-01-07T07:49:34;4.60;99.90
3752;DHT22;50827;47.014;7.652;2024-01-07T07:52:02;4.60;99.90
3752;DHT22;50827;47.014;7.652;2024-01-07T07:54:29;4.60;99.90
3752;DHT22;50827;47.014;7.652;2024-01-07T07:56:58;4.60;99.90
3752;DHT22;50827;47.014;7.652;2024-01-07T07:59:24;4.60;99.90
3752;DHT22;50827;47.014;7.652;2024-01-07T08:01:51;4.60;99.90
3752;DHT22;50827;47.014;7.652;2024-01-07T08:04:18;4.60;99.90
3752;DHT22;50827;47.014;7.652;2024-01-07T08:06:45;4.70;99.90
3752;DHT22;50827;47.014;7.652;2024-01-07T08:09:12;4.70;99.90
3752;DHT22;50827;47.014;7.652;2024-01-07T08:11:38;4.70;99.90
3752;DHT22;50827;47.014;7.652;2024-01-07T08:14:06;4.70;99.90
3752;DHT22;50827;47.014;7.652;2024-01-07T08:16:33;4.70;99.90
3752;DHT22;50827;47.014;7.652;2024-01-07T08:19:00;4.70;99.90
3752;DHT22;50827;47.014;7.652;2024-01-07T08:21:27;4.70;99.90
3752;DHT22;50827;47.014;7.652;2024-01-07T08:23:54;4.60;99.90
3752;DHT22;50827;47.014;7.652;2024-01-07T08:26:21;4.60;99.90
3752;DHT22;50827;47.014;7.652;2024-01-07T08:28:47;4.60;99.90
3752;DHT22;50827;47.014;7.652;2024-01-07T08:31:14;4.70;99.90
3752;DHT22;50827;47.014;7.652;2024-01-07T08:33:41;4.70;99.90
3752;DHT22;50827;47.014;7.652;2024-01-07T08:36:07;4.70;99.90
3752;DHT22;50827;47.014;7.652;2024-01-07T08:38:34;4.70;99.90
3752;DHT22;50827;47.014;7.652;2024-01-07T08:41:02;4.70;99.90
3752;DHT22;50827;47.014;7.652;2024-01-07T08:43:28;4.70;99.90
3752;DHT22;50827;47.014;7.652;2024-01-07T08:45:55;4.70;99.90
3752;DHT22;50827;47.014;7.652;2024-01-07T08:48:22;4.70;99.90
3752;DHT22;50827;47.014;7.652;2024-01-07T08:50:49;4.70;99.90
3752;DHT22;50827;47.014;7.652;2024-01-07T08:53:17;4.70;99.90
3752;DHT22;50827;47.014;7.652;2024-01-07T08:55:45;4.80;99.90
3752;DHT22;50827;47.014;7.652;2024-01-07T08:58:12;4.80;99.90
3752;DHT22;50827;47.014;7.652;2024-01-07T09:00:38;4.80;99.90
3752;DHT22;50827;47.014;7.652;2024-01-07T09:03:05;4.80;99.90
3752;DHT22;50827;47.014;7.652;2024-01-07T09:05:33;4.80;99.90
3752;DHT22;50827;47.014;7.652;2024-01-07T09:08:00;4.80;99.90
3752;DHT22;50827;47.014;7.652;2024-01-07T09:10:31;4.80;99.90
3752;DHT22;50827;47.014;7.652;2024-01-07T09:12:57;4.90;99.90
3752;DHT22;50827;47.014;7.652;2024-01-07T09:15:25;4.90;99.90
3752;DHT22;50827;47.014;7.652;2024-01-07T09:17:52;4.90;99.90
3752;DHT22;50827;47.014;7.652;2024-01-07T09:20:19;4.90;99.90
3752;DHT22;50827;47.014;7.652;2024-01-07T09:22:46;4.90;99.90
3752;DHT22;50827;47.014;7.652;2024-01-07T09:25:15;4.90;99.90
3752;DHT22;50827;47.014;7.652;2024-01-07T09:27:43;4.90;99.90
3752;DHT22;50827;47.014;7.652;2024-01-07T09:30:10;4.90;99.90
3752;DHT22;50827;47.014;7.652;2024-01-07T09:32:41;4.90;99.90
3752;DHT22;50827;47.014;7.652;2024-01-07T09:35:08;5.00;99.90
3752;DHT22;50827;47.014;7.652;2024-01-07T09:37:35;5.00;99.90
3752;DHT22;50827;47.014;7.652;2024-01-07T09:40:02;5.00;99.90
3752;DHT22;50827;47.014;7.652;2024-01-07T09:42:32;5.10;99.90
3752;DHT22;50827;47.014;7.652;2024-01-07T09:45:02;5.10;99.90
3752;DHT22;50827;47.014;7.652;2024-01-07T09:47:32;5.20;99.90
3752;DHT22;50827;47.014;7.652;2024-01-07T09:49:59;5.20;99.90
3752;DHT22;50827;47.014;7.652;2024-01-07T09:52:26;5.20;99.90
3752;DHT22;50827;47.014;7.652;2024-01-07T09:54:57;5.20;99.90
3752;DHT22;50827;47.014;7.652;2024-01-07T09:57:25;5.20;99.90
3752;DHT22;50827;47.014;7.652;2024-01-07T09:59:52;5.30;99.90
3752;DHT22;50827;47.014;7.652;2024-01-07T10:02:20;5.30;99.90
3752;DHT22;50827;47.014;7.652;2024-01-07T10:04:47;5.30;99.90
3752;DHT22;50827;47.014;7.652;2024-01-07T10:07:15;5.30;99.90
3752;DHT22;50827;47.014;7.652;2024-01-07T10:09:43;5.50;99.90
3752;DHT22;50827;47.014;7.652;2024-01-07T10:12:10;5.40;99.90
3752;DHT22;50827;47.014;7.652;2024-01-07T10:14:39;5.40;99.90
3752;DHT22;50827;47.014;7.652;2024-01-07T10:17:14;5.50;99.90
3752;DHT22;50827;47.014;7.652;2024-01-07T10:19:45;5.40;99.90
3752;DHT22;50827;47.014;7.652;2024-01-07T10:22:15;5.50;99.90
3752;DHT22;50827;47.014;7.652;2024-01-07T10:24:44;5.50;99.90
3752;DHT22;50827;47.014;7.652;2024-01-07T10:27:11;5.50;99.90
3752;DHT22;50827;47.014;7.652;2024-01-07T10:29:37;5.50;99.90
3752;DHT22;50827;47.014;7.652;2024-01-07T10:32:05;5.50;99.90
3752;DHT22;50827;47.014;7.652;2024-01-07T10:34:34;5.50;99.90
3752;DHT22;50827;47.014;7.652;2024-01-07T10:37:03;5.30;99.90
3752;DHT22;50827;47.014;7.652;2024-01-07T10:39:31;5.40;99.90
3752;DHT22;50827;47.014;7.652;2024-01-07T10:41:58;5.50;99.90
3752;DHT22;50827;47.014;7.652;2024-01-07T10:44:28;5.40;99.90
3752;DHT22;50827;47.014;7.652;2024-01-07T10:46:55;5.40;99.90
3752;DHT22;50827;47.014;7.652;2024-01-07T10:49:24;5.40;99.90
3752;DHT22;50827;47.014;7.652;2024-01-07T10:54:34;5.50;99.90
3752;DHT22;50827;47.014;7.652;2024-01-07T10:59:36;5.40;99.90
3752;DHT22;50827;47.014;7.652;2024-01-07T11:02:03;5.40;99.90
3752;DHT22;50827;47.014;7.652;2024-01-07T11:04:41;5.50;99.90
3752;DHT22;50827;47.014;7.652;2024-01-07T11:07:35;5.50;99.90
3752;DHT22;50827;47.014;7.652;2024-01-07T11:10:26;5.50;99.90
3752;DHT22;50827;47.014;7.652;2024-01-07T11:13:07;5.40;99.90
3752;DHT22;50827;47.014;7.652;2024-01-07T11:18:20;5.30;99.90
3752;DHT22;50827;47.014;7.652;2024-01-07T11:20:47;5.30;99.90
3752;DHT22;50827;47.014;7.652;2024-01-07T11:23:29;5.40;99.90
3752;DHT22;50827;47.014;7.652;2024-01-07T11:25:57;5.30;99.90
3752;DHT22;50827;47.014;7.652;2024-01-07T11:28:43;5.30;99.90
3752;DHT22;50827;47.014;7.652;2024-01-07T11:31:10;5.30;99.90
3752;DHT22;50827;47.014;7.652;2024-01-07T11:33:37;5.30;99.90
3752;DHT22;50827;47.014;7.652;2024-01-07T11:36:05;5.30;99.90
3752;DHT22;50827;47.014;7.652;2024-01-07T11:38:31;5.20;99.90
3752;DHT22;50827;47.014;7.652;2024-01-07T11:41:00;5.20;99.90
3752;DHT22;50827;47.014;7.652;2024-01-07T11:43:27;5.20;99.90
3752;DHT22;50827;47.014;7.652;2024-01-07T11:45:55;5.20;99.90
3752;DHT22;50827;47.014;7.652;2024-01-07T11:48:22;5.20;99.90
3752;DHT22;50827;47.014;7.652;2024-01-07T11:50:48;5.20;99.90
3752;DHT22;50827;47.014;7.652;2024-01-07T11:53:20;5.20;99.90
3752;DHT22;50827;47.014;7.652;2024-01-07T11:55:47;5.20;99.90
3752;DHT22;50827;47.014;7.652;2024-01-07T11:58:13;5.20;99.90
3752;DHT22;50827;47.014;7.652;2024-01-07T12:00:40;5.20;99.90
3752;DHT22;50827;47.014;7.652;2024-01-07T12:03:07;5.20;99.90
3752;DHT22;50827;47.014;7.652;2024-01-07T12:05:34;5.30;99.90
3752;DHT22;50827;47.014;7.652;2024-01-07T12:08:01;5.30;99.90
3752;DHT22;50827;47.014;7.652;2024-01-07T12:10:27;5.20;99.90
3752;DHT22;50827;47.014;7.652;2024-01-07T12:12:56;5.20;99.90
3752;DHT22;50827;47.014;7.652;2024-01-07T12:15:23;5.20;99.90
3752;DHT22;50827;47.014;7.652;2024-01-07T12:17:57;5.30;99.90
3752;DHT22;50827;47.014;7.652;2024-01-07T12:20:26;5.30;99.90
3752;DHT22;50827;47.014;7.652;2024-01-07T12:23:14;5.30;99.90
3752;DHT22;50827;47.014;7.652;2024-01-07T12:25:41;5.40;99.90
3752;DHT22;50827;47.014;7.652;2024-01-07T12:28:07;5.40;99.90
3752;DHT22;50827;47.014;7.652;2024-01-07T12:30:34;5.30;99.90
3752;DHT22;50827;47.014;7.652;2024-01-07T12:33:04;5.30;99.90
3752;DHT22;50827;47.014;7.652;2024-01-07T12:35:31;5.20;99.90
3752;DHT22;50827;47.014;7.652;2024-01-07T12:37:59;5.30;99.90
3752;DHT22;50827;47.014;7.652;2024-01-07T12:40:26;5.30;99.90
3752;DHT22;50827;47.014;7.652;2024-01-07T12:42:53;5.30;99.90
3752;DHT22;50827;47.014;7.652;2024-01-07T12:45:20;5.40;99.90
3752;DHT22;50827;47.014;7.652;2024-01-07T12:47:47;5.40;99.90
3752;DHT22;50827;47.014;7.652;2024-01-07T12:50:14;5.50;99.90
3752;DHT22;50827;47.014;7.652;2024-01-07T12:52:43;5.30;99.90
3752;DHT22;50827;47.014;7.652;2024-01-07T12:55:10;5.50;99.90
3752;DHT22;50827;47.014;7.652;2024-01-07T12:57:36;5.50;99.90
3752;DHT22;50827;47.014;7.652;2024-01-07T13:00:04;5.60;99.90
3752;DHT22;50827;47.014;7.652;2024-01-07T13:02:33;5.60;99.90
3752;DHT22;50827;47.014;7.652;2024-01-07T13:05:01;5.50;99.90
3752;DHT22;50827;47.014;7.652;2024-01-07T13:07:28;5.50;99.90
3752;DHT22;50827;47.014;7.652;2024-01-07T13:09:55;5.50;99.90
3752;DHT22;50827;47.014;7.652;2024-01-07T13:12:22;5.50;99.90
3752;DHT22;50827;47.014;7.652;2024-01-07T13:14:53;5.40;99.90
3752;DHT22;50827;47.014;7.652;2024-01-07T13:17:19;5.30;99.90
3752;DHT22;50827;47.014;7.652;2024-01-07T13:19:46;5.30;99.90
3752;DHT22;50827;47.014;7.652;2024-01-07T13:22:13;5.30;99.90
3752;DHT22;50827;47.014;7.652;2024-01-07T13:24:41;5.20;99.90
3752;DHT22;50827;47.014;7.652;2024-01-07T13:27:07;5.20;99.90
3752;DHT22;50827;47.014;7.652;2024-01-07T13:29:37;5.20;99.90
3752;DHT22;50827;47.014;7.652;2024-01-07T13:32:04;5.20;99.90
3752;DHT22;50827;47.014;7.652;2024-01-07T13:34:31;5.20;99.90
3752;DHT22;50827;47.014;7.652;2024-01-07T13:36:57;5.20;99.90
3752;DHT22;50827;47.014;7.652;2024-01-07T13:39:24;5.20;99.90
3752;DHT22;50827;47.014;7.652;2024-01-07T13:41:51;5.20;99.90
3752;DHT22;50827;47.014;7.652;2024-01-07T13:44:18;5.30;99.90
3752;DHT22;50827;47.014;7.652;2024-01-07T13:46:47;5.30;99.90
3752;DHT22;50827;47.014;7.652;2024-01-07T13:49:14;5.30;99.90
3752;DHT22;50827;47.014;7.652;2024-01-07T13:51:41;5.30;99.90
3752;DHT22;50827;47.014;7.652;2024-01-07T13:54:08;5.30;99.90
3752;DHT22;50827;47.014;7.652;2024-01-07T13:56:40;5.30;99.90
3752;DHT22;50827;47.014;7.652;2024-01-07T13:59:14;5.30;99.90
3752;DHT22;50827;47.014;7.652;2024-01-07T14:01:40;5.30;99.90
3752;DHT22;50827;47.014;7.652;2024-01-07T14:04:09;5.30;99.90
3752;DHT22;50827;47.014;7.652;2024-01-07T14:06:36;5.30;99.90
3752;DHT22;50827;47.014;7.652;2024-01-07T14:09:03;5.30;99.90
3752;DHT22;50827;47.014;7.652;2024-01-07T14:11:30;5.20;99.90
3752;DHT22;50827;47.014;7.652;2024-01-07T14:13:56;5.20;99.90
3752;DHT22;50827;47.014;7.652;2024-01-07T14:16:23;5.30;99.90
3752;DHT22;50827;47.014;7.652;2024-01-07T14:18:50;5.20;99.90
3752;DHT22;50827;47.014;7.652;2024-01-07T14:21:17;5.30;99.90
3752;DHT22;50827;47.014;7.652;2024-01-07T14:23:44;5.30;99.90
3752;DHT22;50827;47.014;7.652;2024-01-07T14:26:10;5.30;99.90
3752;DHT22;50827;47.014;7.652;2024-01-07T14:28:37;5.30;99.90
3752;DHT22;50827;47.014;7.652;2024-01-07T14:31:04;5.30;99.90
3752;DHT22;50827;47.014;7.652;2024-01-07T14:33:31;5.30;99.90
3752;DHT22;50827;47.014;7.652;2024-01-07T14:35:58;5.20;99.90
3752;DHT22;50827;47.014;7.652;2024-01-07T14:38:25;5.20;99.90
3752;DHT22;50827;47.014;7.652;2024-01-07T14:40:52;5.20;99.90
3752;DHT22;50827;47.014;7.652;2024-01-07T14:43:19;5.20;99.90
3752;DHT22;50827;47.014;7.652;2024-01-07T14:45:46;5.20;99.90
3752;DHT22;50827;47.014;7.652;2024-01-07T14:48:12;5.10;99.90
3752;DHT22;50827;47.014;7.652;2024-01-07T14:50:40;5.10;99.90
3752;DHT22;50827;47.014;7.652;2024-01-07T14:53:07;5.10;99.90
3752;DHT22;50827;47.014;7.652;2024-01-07T14:55:34;5.10;99.90
3752;DHT22;50827;47.014;7.652;2024-01-07T14:58:01;5.10;99.90
3752;DHT22;50827;47.014;7.652;2024-01-07T15:00:28;5.10;99.90
3752;DHT22;50827;47.014;7.652;2024-01-07T15:02:55;5.10;99.90
3752;DHT22;50827;47.014;7.652;2024-01-07T15:05:21;5.10;99.90
3752;DHT22;50827;47.014;7.652;2024-01-07T15:07:48;5.10;99.90
3752;DHT22;50827;47.014;7.652;2024-01-07T15:10:16;5.10;99.90
3752;DHT22;50827;47.014;7.652;2024-01-07T15:12:44;5.00;99.90
3752;DHT22;50827;47.014;7.652;2024-01-07T15:15:20;5.00;99.90
3752;DHT22;50827;47.014;7.652;2024-01-07T15:17:48;4.90;99.90
3752;DHT22;50827;47.014;7.652;2024-01-07T15:20:16;4.90;99.90
3752;DHT22;50827;47.014;7.652;2024-01-07T15:22:43;4.90;99.90
3752;DHT22;50827;47.014;7.652;2024-01-07T15:25:10;4.90;99.90
3752;DHT22;50827;47.014;7.652;2024-01-07T15:27:37;4.90;99.90
3752;DHT22;50827;47.014;7.652;2024-01-07T15:30:04;4.90;99.90
3752;DHT22;50827;47.014;7.652;2024-01-07T15:32:31;4.90;99.90
3752;DHT22;50827;47.014;7.652;2024-01-07T15:34:58;4.90;99.90
3752;DHT22;50827;47.014;7.652;2024-01-07T15:37:26;4.80;99.90
3752;DHT22;50827;47.014;7.652;2024-01-07T15:39:53;4.80;99.90
3752;DHT22;50827;47.014;7.652;2024-01-07T15:42:21;4.70;99.90
3752;DHT22;50827;47.014;7.652;2024-01-07T15:44:48;4.70;99.90
3752;DHT22;50827;47.014;7.652;2024-01-07T15:47:15;4.50;99.90
3752;DHT22;50827;47.014;7.652;2024-01-07T15:49:45;4.50;99.90
3752;DHT22;50827;47.014;7.652;2024-01-07T15:52:12;4.50;99.90
3752;DHT22;50827;47.014;7.652;2024-01-07T15:54:40;4.50;99.90
3752;DHT22;50827;47.014;7.652;2024-01-07T15:57:08;4.40;99.90
3752;DHT22;50827;47.014;7.652;2024-01-07T15:59:34;4.50;99.90
3752;DHT22;50827;47.014;7.652;2024-01-07T16:02:01;4.40;99.90
3752;DHT22;50827;47.014;7.652;2024-01-07T16:04:28;4.30;99.90
3752;DHT22;50827;47.014;7.652;2024-01-07T16:06:55;4.30;99.90
3752;DHT22;50827;47.014;7.652;2024-01-07T16:09:21;4.30;99.90
3752;DHT22;50827;47.014;7.652;2024-01-07T16:11:48;4.20;99.90